createdAt,value
2022-08-26T00:01:29.089Z,98816.00
2022-08-26T00:04:06.881Z,98817.60
2022-08-26T00:06:46.115Z,98821.80
2022-08-26T00:09:22.974Z,98820.60
2022-08-26T00:12:01.132Z,98821.00
2022-08-26T00:14:37.074Z,98817.80
2022-08-26T00:17:13.722Z,98815.60
2022-08-26T00:19:49.894Z,98819.80
2022-08-26T00:22:28.808Z,98818.20
2022-08-26T00:25:05.107Z,98815.80
2022-08-26T00:27:41.918Z,98824.20
2022-08-26T00:30:26.502Z,98814.60
2022-08-26T00:33:05.080Z,98810.60
2022-08-26T00:35:45.273Z,98817.80
2022-08-26T00:38:22.293Z,98814.60
2022-08-26T00:41:00.501Z,98819.40
2022-08-26T00:43:46.224Z,98817.80
2022-08-26T00:46:29.892Z,98813.80
2022-08-26T00:49:16.917Z,98814.40
2022-08-26T00:52:00.047Z,98811.80
2022-08-26T00:54:45.388Z,98810.80
2022-08-26T00:57:25.507Z,98810.00
2022-08-26T01:00:07.394Z,98811.00
2022-08-26T01:02:46.933Z,98820.80
2022-08-26T01:05:25.541Z,98817.80
2022-08-26T01:08:01.548Z,98817.80
2022-08-26T01:10:39.836Z,98821.00
2022-08-26T01:13:16.710Z,98820.40
2022-08-26T01:16:02.272Z,98821.00
2022-08-26T01:18:38.406Z,98823.00
2022-08-26T01:21:27.783Z,98826.40
2022-08-26T01:24:06.690Z,98823.40
2022-08-26T01:26:46.331Z,98825.80
2022-08-26T01:29:23.904Z,98819.80
2022-08-26T01:32:01.507Z,98819.60
2022-08-26T01:34:43.255Z,98815.00
2022-08-26T01:37:25.028Z,98815.60
2022-08-26T01:40:00.333Z,98814.00
2022-08-26T01:42:36.920Z,98809.80
2022-08-26T01:45:20.610Z,98812.60
2022-08-26T01:48:00.621Z,98816.40
2022-08-26T01:50:41.327Z,98816.00
2022-08-26T01:53:25.143Z,98817.00
2022-08-26T01:56:05.712Z,98812.60
2022-08-26T01:58:47.618Z,98817.00
2022-08-26T02:01:29.023Z,98812.60
2022-08-26T02:04:16.964Z,98811.80
2022-08-26T02:06:53.359Z,98809.80
2022-08-26T02:09:30.877Z,98807.20
2022-08-26T02:12:08.792Z,98807.60
2022-08-26T02:14:53.428Z,98810.00
2022-08-26T02:17:40.629Z,98805.60
2022-08-26T02:20:21.780Z,98804.40
2022-08-26T02:22:57.678Z,98809.00
2022-08-26T02:25:49.467Z,98804.00
2022-08-26T02:28:26.792Z,98805.00
2022-08-26T02:31:02.898Z,98806.00
2022-08-26T02:33:43.191Z,98809.60
2022-08-26T02:36:24.039Z,98805.40
2022-08-26T02:39:05.353Z,98803.80
2022-08-26T02:41:44.879Z,98802.20
2022-08-26T02:44:21.293Z,98799.00
2022-08-26T02:46:57.319Z,98797.20
2022-08-26T02:49:33.683Z,98799.20
2022-08-26T02:52:10.058Z,98796.20
2022-08-26T02:54:46.630Z,98791.00
2022-08-26T02:57:25.524Z,98791.60
2022-08-26T03:00:05.617Z,98794.60
2022-08-26T03:02:41.612Z,98792.60
2022-08-26T03:05:19.899Z,98792.40
2022-08-26T03:07:56.459Z,98791.80
2022-08-26T03:10:32.760Z,98788.60
2022-08-26T03:13:09.145Z,98788.20
2022-08-26T03:15:45.943Z,98788.20
2022-08-26T03:18:23.856Z,98791.20
2022-08-26T03:21:00.286Z,98790.80
2022-08-26T03:23:38.581Z,98792.40
2022-08-26T03:26:17.355Z,98786.60
2022-08-26T03:29:11.358Z,98787.00
2022-08-26T03:31:47.555Z,98788.40
2022-08-26T03:34:24.470Z,98785.80
2022-08-26T03:37:01.886Z,98782.40
2022-08-26T03:39:38.238Z,98785.20
2022-08-26T03:42:15.096Z,98782.80
2022-08-26T03:44:51.618Z,98785.20
2022-08-26T03:47:27.835Z,98787.00
2022-08-26T03:50:05.594Z,98790.20
2022-08-26T03:52:43.896Z,98784.60
2022-08-26T03:55:23.620Z,98783.80
2022-08-26T03:58:01.063Z,98779.60
2022-08-26T04:00:37.275Z,98780.20
2022-08-26T04:03:18.500Z,98779.40
2022-08-26T04:05:57.371Z,98783.80
2022-08-26T04:08:33.568Z,98782.00
2022-08-26T04:11:10.584Z,98783.40
2022-08-26T04:13:46.727Z,98786.40
2022-08-26T04:16:24.127Z,98791.40
2022-08-26T04:19:03.032Z,98791.80
2022-08-26T04:21:39.503Z,98797.00
2022-08-26T04:24:18.242Z,98793.20
2022-08-26T04:26:56.542Z,98798.00
2022-08-26T04:29:32.862Z,98792.40
2022-08-26T04:32:10.663Z,98797.20
2022-08-26T04:34:47.434Z,98796.20
2022-08-26T04:37:24.628Z,98795.40
2022-08-26T04:40:00.865Z,98794.40
2022-08-26T04:42:37.994Z,98798.20
2022-08-26T04:45:15.858Z,98789.60
2022-08-26T04:47:58.263Z,98789.20
2022-08-26T04:50:34.754Z,98789.60
2022-08-26T04:53:10.669Z,98790.20
2022-08-26T04:55:46.751Z,98787.20
2022-08-26T04:58:27.055Z,98788.40
2022-08-26T05:01:03.201Z,98782.20
2022-08-26T05:03:41.014Z,98788.80
2022-08-26T05:06:19.772Z,98792.20
2022-08-26T05:08:55.977Z,98794.40
2022-08-26T05:11:32.198Z,98795.00
2022-08-26T05:14:08.497Z,98795.80
2022-08-26T05:16:44.659Z,98797.20
2022-08-26T05:19:24.884Z,98801.00
2022-08-26T05:22:05.663Z,98796.20
2022-08-26T05:24:42.081Z,98800.20
2022-08-26T05:27:18.510Z,98800.40
2022-08-26T05:29:57.281Z,98800.40
2022-08-26T05:32:33.294Z,98805.20
2022-08-26T05:35:10.949Z,98804.40
2022-08-26T05:37:47.008Z,98805.00
2022-08-26T05:40:23.416Z,98803.00
2022-08-26T05:42:59.913Z,98810.40
2022-08-26T05:45:35.883Z,98812.60
2022-08-26T05:48:12.172Z,98813.20
2022-08-26T05:50:52.466Z,98814.80
2022-08-26T05:53:28.446Z,98816.20
2022-08-26T05:56:06.356Z,98810.00
2022-08-26T05:58:43.764Z,98812.80
2022-08-26T06:01:26.804Z,98810.40
2022-08-26T06:04:05.183Z,98812.60
2022-08-26T06:06:42.861Z,98811.00
2022-08-26T06:09:21.626Z,98807.20
2022-08-26T06:11:58.895Z,98809.00
2022-08-26T06:14:36.170Z,98808.40
2022-08-26T06:17:12.916Z,98808.80
2022-08-26T06:19:49.392Z,98812.80
2022-08-26T06:22:43.473Z,98818.00
2022-08-26T06:25:37.210Z,98820.40
2022-08-26T06:28:13.733Z,98816.00
2022-08-26T06:30:50.331Z,98816.60
2022-08-26T06:33:28.959Z,98816.60
2022-08-26T06:36:05.825Z,98819.20
2022-08-26T06:38:41.959Z,98818.00
2022-08-26T06:41:21.242Z,98818.40
2022-08-26T06:43:57.853Z,98812.40
2022-08-26T06:46:34.099Z,98817.00
2022-08-26T06:49:10.774Z,98815.00
2022-08-26T06:51:47.183Z,98822.40
2022-08-26T06:54:25.110Z,98822.60
2022-08-26T06:57:01.427Z,98825.00
2022-08-26T06:59:37.724Z,98823.80
2022-08-26T07:02:14.986Z,98824.20
2022-08-26T07:04:53.891Z,98826.00
2022-08-26T07:07:32.956Z,98823.00
2022-08-26T07:10:11.282Z,98830.80
2022-08-26T07:12:49.197Z,98829.60
2022-08-26T07:15:31.023Z,98828.80
2022-08-26T07:18:09.312Z,98823.40
2022-08-26T07:20:45.887Z,98826.80
2022-08-26T07:23:21.849Z,98822.40
2022-08-26T07:25:58.588Z,98817.20
2022-08-26T07:28:34.668Z,98822.60
2022-08-26T07:31:14.468Z,98818.40
2022-08-26T07:33:51.296Z,98819.20
2022-08-26T07:36:30.431Z,98815.40
2022-08-26T07:39:06.991Z,98812.00
2022-08-26T07:41:43.168Z,98814.60
2022-08-26T07:44:20.085Z,98817.20
2022-08-26T07:46:56.382Z,98814.20
2022-08-26T07:49:33.020Z,98806.80
2022-08-26T07:52:10.445Z,98805.60
2022-08-26T07:54:47.103Z,98807.00
2022-08-26T07:57:24.296Z,98812.20
2022-08-26T08:00:01.404Z,98809.40
2022-08-26T08:02:37.777Z,98814.00
2022-08-26T08:05:16.529Z,98811.60
2022-08-26T08:07:53.722Z,98818.00
2022-08-26T08:10:50.259Z,98809.60
2022-08-26T08:13:26.482Z,98812.40
2022-08-26T08:16:02.614Z,98808.20
2022-08-26T08:18:38.842Z,98804.20
2022-08-26T08:21:21.753Z,98803.20
2022-08-26T08:24:00.907Z,98804.80
2022-08-26T08:26:36.802Z,98800.00
2022-08-26T08:29:13.031Z,98797.80
2022-08-26T08:31:57.962Z,98800.80
2022-08-26T08:34:35.000Z,98794.40
2022-08-26T08:37:12.561Z,98794.60
2022-08-26T08:39:49.020Z,98796.20
2022-08-26T08:45:42.035Z,98787.60
2022-08-26T08:48:28.011Z,98785.60
2022-08-26T08:51:20.318Z,98793.80
2022-08-26T08:54:00.123Z,98787.00
2022-08-26T08:56:41.201Z,98783.40
2022-08-26T08:59:24.177Z,98782.40
2022-08-26T09:02:18.264Z,98784.40
2022-08-26T09:05:19.853Z,98781.20
2022-08-26T09:08:02.941Z,98777.60
2022-08-26T09:10:48.423Z,98774.20
2022-08-26T09:13:27.186Z,98776.60
2022-08-26T09:16:18.938Z,98775.40
2022-08-26T09:19:19.355Z,98773.80
2022-08-26T09:22:08.779Z,98773.40
2022-08-26T09:24:48.402Z,98765.40
2022-08-26T09:27:45.235Z,98762.80
2022-08-26T09:30:30.140Z,98767.20
2022-08-26T09:33:11.737Z,98770.60
2022-08-26T09:35:52.353Z,98764.20
2022-08-26T09:38:36.290Z,98758.60
2022-08-26T09:41:32.226Z,98758.00
2022-08-26T09:44:21.921Z,98757.60
2022-08-26T09:47:06.128Z,98755.40
2022-08-26T09:49:45.788Z,98749.20
2022-08-26T09:52:27.924Z,98752.00
2022-08-26T09:55:22.055Z,98750.80
2022-08-26T09:58:06.814Z,98746.80
2022-08-26T10:00:57.395Z,98739.60
2022-08-26T10:03:39.593Z,98737.40
2022-08-26T10:06:28.746Z,98735.20
2022-08-26T10:09:09.746Z,98735.20
2022-08-26T10:11:54.255Z,98737.60
2022-08-26T10:14:39.641Z,98737.40
2022-08-26T10:17:30.771Z,98735.00
2022-08-26T10:20:22.974Z,98733.00
2022-08-26T10:23:07.191Z,98733.60
2022-08-26T10:25:59.050Z,98731.40
2022-08-26T10:28:46.846Z,98732.40
2022-08-26T10:31:40.574Z,98727.60
2022-08-26T10:34:21.140Z,98728.60
2022-08-26T10:37:13.623Z,98729.80
2022-08-26T10:40:00.990Z,98727.60
2022-08-26T10:42:44.140Z,98729.40
2022-08-26T10:45:27.623Z,98718.40
2022-08-26T10:48:11.164Z,98716.60
2022-08-26T10:50:49.760Z,98710.80
2022-08-26T10:53:44.637Z,98705.40
2022-08-26T10:56:41.427Z,98707.00
2022-08-26T10:59:30.150Z,98702.40
2022-08-26T11:02:24.210Z,98704.60
2022-08-26T11:05:04.778Z,98706.60
2022-08-26T11:07:51.439Z,98698.60
2022-08-26T11:11:01.352Z,98699.60
2022-08-26T11:14:07.545Z,98697.00
2022-08-26T11:16:48.562Z,98687.60
2022-08-26T11:20:09.019Z,98691.80
2022-08-26T11:22:49.855Z,98696.20
2022-08-26T11:25:30.230Z,98697.80
2022-08-26T11:28:07.833Z,98699.80
2022-08-26T11:30:58.085Z,98687.20
2022-08-26T11:34:03.020Z,98685.00
2022-08-26T11:37:05.080Z,98685.20
2022-08-26T11:39:57.626Z,98686.00
2022-08-26T11:42:44.460Z,98681.40
2022-08-26T11:45:29.489Z,98674.60
2022-08-26T11:48:29.791Z,98668.00
2022-08-26T11:51:09.207Z,98667.20
2022-08-26T11:53:47.471Z,98671.00
2022-08-26T11:56:33.355Z,98666.60
2022-08-26T11:59:16.658Z,98661.60
2022-08-26T12:01:57.464Z,98659.00
2022-08-26T12:04:42.090Z,98661.60
2022-08-26T12:07:23.958Z,98656.20
2022-08-26T12:10:05.820Z,98651.20
2022-08-26T12:12:42.606Z,98643.00
2022-08-26T12:15:23.030Z,98652.80
2022-08-26T12:18:00.489Z,98638.80
2022-08-26T12:20:54.068Z,98635.00
2022-08-26T12:23:46.868Z,98631.80
2022-08-26T12:26:31.573Z,98634.00
2022-08-26T12:29:20.339Z,98636.00
2022-08-26T12:32:17.704Z,98640.80
2022-08-26T12:34:55.221Z,98631.40
2022-08-26T12:37:34.983Z,98632.40
2022-08-26T12:40:44.099Z,98628.40
2022-08-26T12:43:44.908Z,98624.60
2022-08-26T12:46:31.018Z,98621.60
2022-08-26T12:49:07.100Z,98619.00
2022-08-26T12:51:50.747Z,98621.40
2022-08-26T12:54:47.754Z,98619.80
2022-08-26T12:57:31.872Z,98616.80
2022-08-26T13:00:36.118Z,98618.00
2022-08-26T13:03:46.092Z,98615.80
2022-08-26T13:06:34.683Z,98609.60
2022-08-26T13:09:34.356Z,98606.60
2022-08-26T13:12:11.671Z,98611.20
2022-08-26T13:14:47.704Z,98605.20
2022-08-26T13:17:24.319Z,98605.40
2022-08-26T13:20:04.133Z,98600.60
2022-08-26T13:25:19.662Z,98595.60
2022-08-26T13:27:56.468Z,98593.20
2022-08-26T13:30:32.558Z,98589.60
2022-08-26T13:33:09.648Z,98594.80
2022-08-26T13:35:48.739Z,98591.60
2022-08-26T13:38:33.260Z,98590.40
2022-08-26T13:41:10.481Z,98585.40
2022-08-26T13:43:49.660Z,98586.80
2022-08-26T13:46:25.754Z,98584.00
2022-08-26T13:49:03.013Z,98591.00
2022-08-26T13:51:40.244Z,98588.20
2022-08-26T13:54:16.246Z,98585.60
2022-08-26T13:56:52.313Z,98583.60
2022-08-26T13:59:28.568Z,98585.20
2022-08-26T14:02:04.963Z,98584.80
2022-08-26T14:04:40.994Z,98584.20
2022-08-26T14:07:17.115Z,98586.80
2022-08-26T14:09:53.095Z,98584.00
2022-08-26T14:12:29.557Z,98576.20
2022-08-26T14:15:06.082Z,98577.20
2022-08-26T14:17:43.624Z,98576.60
2022-08-26T14:20:27.296Z,98577.60
2022-08-26T14:23:13.658Z,98575.00
2022-08-26T14:25:50.238Z,98569.20
2022-08-26T14:31:08.859Z,98572.00
2022-08-26T14:33:45.875Z,98568.80
2022-08-26T14:36:32.339Z,98566.80
2022-08-26T14:39:13.252Z,98564.80
2022-08-26T14:41:56.141Z,98569.80
2022-08-26T14:44:35.594Z,98564.80
2022-08-26T14:47:12.223Z,98565.00
2022-08-26T14:49:48.208Z,98565.60
2022-08-26T14:52:24.347Z,98561.00
2022-08-26T14:55:00.345Z,98567.00
2022-08-26T14:57:36.268Z,98565.40
2022-08-26T15:00:15.639Z,98568.60
2022-08-26T15:02:51.936Z,98570.00
2022-08-26T15:05:28.534Z,98573.40
2022-08-26T15:08:10.665Z,98571.20
2022-08-26T15:10:46.921Z,98576.60
2022-08-26T15:13:22.923Z,98575.20
2022-08-26T15:15:59.015Z,98571.20
2022-08-26T15:18:35.562Z,98574.40
2022-08-26T15:21:12.880Z,98574.00
2022-08-26T15:23:49.693Z,98573.40
2022-08-26T15:26:27.607Z,98568.60
2022-08-26T15:29:05.203Z,98572.00
2022-08-26T15:31:41.546Z,98571.20
2022-08-26T15:34:18.813Z,98571.60
2022-08-26T15:36:56.831Z,98568.40
2022-08-26T15:39:32.902Z,98567.40
2022-08-26T15:42:12.248Z,98567.40
2022-08-26T15:44:50.316Z,98571.20
2022-08-26T15:47:26.339Z,98565.40
2022-08-26T15:50:04.654Z,98566.20
2022-08-26T15:52:42.203Z,98562.20
2022-08-26T15:55:18.862Z,98562.00
2022-08-26T15:57:58.436Z,98560.40
2022-08-26T16:00:37.445Z,98559.80
2022-08-26T16:03:13.553Z,98556.60
2022-08-26T16:05:50.663Z,98554.60
2022-08-26T16:08:27.213Z,98552.80
2022-08-26T16:11:07.124Z,98557.20
2022-08-26T16:13:43.230Z,98556.60
2022-08-26T16:16:21.513Z,98555.00
2022-08-26T16:18:57.966Z,98551.00
2022-08-26T16:21:34.104Z,98556.80
2022-08-26T16:24:12.015Z,98555.80
2022-08-26T16:26:49.076Z,98555.40
2022-08-26T16:29:25.682Z,98548.40
2022-08-26T16:32:08.684Z,98547.00
2022-08-26T16:34:56.379Z,98546.00
2022-08-26T16:37:35.444Z,98541.40
2022-08-26T16:40:15.947Z,98546.80
2022-08-26T16:42:52.063Z,98544.20
2022-08-26T16:45:29.226Z,98543.20
2022-08-26T16:48:07.208Z,98539.60
2022-08-26T16:50:45.074Z,98539.60
2022-08-26T16:53:21.459Z,98541.00
2022-08-26T16:55:57.534Z,98538.20
2022-08-26T16:58:34.099Z,98541.00
2022-08-26T17:01:10.394Z,98535.20
2022-08-26T17:03:46.554Z,98534.80
2022-08-26T17:06:23.084Z,98533.40
2022-08-26T17:08:59.134Z,98529.60
2022-08-26T17:11:35.863Z,98529.00
2022-08-26T17:14:12.104Z,98527.80
2022-08-26T17:16:51.261Z,98524.00
2022-08-26T17:19:27.278Z,98527.00
2022-08-26T17:22:06.061Z,98524.80
2022-08-26T17:24:42.094Z,98525.60
2022-08-26T17:27:18.175Z,98526.60
2022-08-26T17:29:54.794Z,98521.40
2022-08-26T17:32:30.752Z,98523.00
2022-08-26T17:35:09.392Z,98525.80
2022-08-26T17:37:49.153Z,98524.00
2022-08-26T17:40:30.747Z,98526.40
2022-08-26T17:43:10.356Z,98525.20
2022-08-26T17:45:48.528Z,98525.40
2022-08-26T17:48:25.425Z,98525.20
2022-08-26T17:51:01.544Z,98526.40
2022-08-26T17:53:37.658Z,98521.40
2022-08-26T17:56:17.497Z,98526.00
2022-08-26T17:58:56.939Z,98519.60
2022-08-26T18:01:33.495Z,98525.00
2022-08-26T18:04:10.238Z,98520.80
2022-08-26T18:06:46.587Z,98523.40
2022-08-26T18:09:24.189Z,98528.60
2022-08-26T18:12:01.241Z,98523.00
2022-08-26T18:14:37.858Z,98528.60
2022-08-26T18:17:13.945Z,98530.80
2022-08-26T18:19:53.776Z,98532.60
2022-08-26T18:22:30.095Z,98533.00
2022-08-26T18:25:08.750Z,98531.20
2022-08-26T18:27:45.264Z,98528.00
2022-08-26T18:30:24.114Z,98528.80
2022-08-26T18:33:00.329Z,98531.60
2022-08-26T18:35:41.243Z,98527.60
2022-08-26T18:38:18.793Z,98528.20
2022-08-26T18:40:55.490Z,98524.20
2022-08-26T18:43:31.750Z,98525.80
2022-08-26T18:46:13.328Z,98524.80
2022-08-26T18:48:50.863Z,98524.00
2022-08-26T18:51:30.764Z,98525.20
2022-08-26T18:54:10.390Z,98526.20
2022-08-26T18:56:49.393Z,98525.60
2022-08-26T18:59:28.454Z,98523.80
2022-08-26T19:02:07.574Z,98521.80
2022-08-26T19:04:43.819Z,98522.60
2022-08-26T19:07:20.208Z,98523.00
2022-08-26T19:09:57.096Z,98517.80
2022-08-26T19:12:33.376Z,98517.40
2022-08-26T19:15:12.495Z,98517.60
2022-08-26T19:17:48.746Z,98518.00
2022-08-26T19:20:25.098Z,98517.80
2022-08-26T19:23:05.757Z,98508.80
2022-08-26T19:25:50.896Z,98507.40
2022-08-26T19:28:31.814Z,98506.80
2022-08-26T19:31:10.570Z,98507.40
2022-08-26T19:33:48.332Z,98510.80
2022-08-26T19:36:27.136Z,98510.20
2022-08-26T19:39:07.792Z,98509.00
2022-08-26T19:41:44.516Z,98504.60
2022-08-26T19:44:43.909Z,98506.40
2022-08-26T19:47:21.451Z,98504.40
2022-08-26T19:50:00.704Z,98506.80
2022-08-26T19:52:38.743Z,98508.00
2022-08-26T19:55:21.238Z,98508.60
2022-08-26T19:57:57.851Z,98507.40
2022-08-26T20:00:39.793Z,98511.80
2022-08-26T20:03:16.474Z,98512.60
2022-08-26T20:05:53.553Z,98515.00
2022-08-26T20:08:29.904Z,98514.20
2022-08-26T20:11:13.021Z,98512.40
2022-08-26T20:13:50.969Z,98515.80
2022-08-26T20:16:27.487Z,98518.80
2022-08-26T20:19:21.421Z,98517.80
2022-08-26T20:21:57.750Z,98522.60
2022-08-26T20:24:36.418Z,98525.00
2022-08-26T20:27:12.556Z,98520.60
2022-08-26T20:29:48.562Z,98523.80
2022-08-26T20:32:25.440Z,98525.60
2022-08-26T20:35:01.713Z,98526.40
2022-08-26T20:37:39.035Z,98532.20
2022-08-26T20:40:18.045Z,98529.40
2022-08-26T20:42:56.771Z,98535.00
2022-08-26T20:45:32.904Z,98541.20
2022-08-26T20:48:09.968Z,98544.00
2022-08-26T20:50:46.451Z,98544.00
2022-08-26T20:53:22.660Z,98547.40
2022-08-26T20:56:08.267Z,98544.80
2022-08-26T20:58:45.915Z,98548.20
2022-08-26T21:01:26.795Z,98545.00
2022-08-26T21:04:08.900Z,98545.40
2022-08-26T21:06:52.077Z,98547.60
2022-08-26T21:09:29.964Z,98548.20
2022-08-26T21:12:07.867Z,98547.40
2022-08-26T21:14:47.721Z,98545.00
2022-08-26T21:17:24.130Z,98542.40
2022-08-26T21:20:00.554Z,98547.40
2022-08-26T21:22:37.089Z,98546.00
2022-08-26T21:25:15.264Z,98547.80
2022-08-26T21:27:51.219Z,98542.20
2022-08-26T21:30:27.615Z,98543.60
2022-08-26T21:33:07.777Z,98544.60
2022-08-26T21:35:51.797Z,98543.20
2022-08-26T21:38:30.901Z,98546.40
2022-08-26T21:41:11.967Z,98548.00
2022-08-26T21:43:50.149Z,98548.00
2022-08-26T21:46:30.154Z,98547.20
2022-08-26T21:49:12.953Z,98548.20
2022-08-26T21:51:52.282Z,98547.80
2022-08-26T21:54:28.440Z,98547.60
2022-08-26T21:57:04.487Z,98546.40
2022-08-26T21:59:40.544Z,98545.40
2022-08-26T22:02:16.821Z,98547.00
2022-08-26T22:04:54.183Z,98550.20
2022-08-26T22:07:30.410Z,98548.40
2022-08-26T22:10:08.147Z,98550.80
2022-08-26T22:12:44.320Z,98552.80
2022-08-26T22:15:23.315Z,98546.60
2022-08-26T22:17:59.701Z,98546.20
2022-08-26T22:20:36.490Z,98547.80
2022-08-26T22:23:13.749Z,98544.20
2022-08-26T22:25:50.209Z,98540.60
2022-08-26T22:28:27.480Z,98539.20
2022-08-26T22:31:03.861Z,98540.40
2022-08-26T22:33:44.802Z,98536.20
2022-08-26T22:36:32.598Z,98542.80
2022-08-26T22:39:13.459Z,98537.80
2022-08-26T22:41:55.320Z,98540.60
2022-08-26T22:44:32.567Z,98543.00
2022-08-26T22:47:09.891Z,98538.20
2022-08-26T22:49:46.916Z,98536.40
2022-08-26T22:52:23.069Z,98535.20
2022-08-26T22:54:59.203Z,98530.20
2022-08-26T22:57:35.698Z,98529.00
2022-08-26T23:00:17.990Z,98531.20
2022-08-26T23:02:54.128Z,98530.20
2022-08-26T23:05:31.130Z,98529.20
2022-08-26T23:08:08.730Z,98526.40
2022-08-26T23:10:48.142Z,98523.00
2022-08-26T23:13:24.649Z,98527.20
2022-08-26T23:16:11.094Z,98526.20
2022-08-26T23:18:47.491Z,98526.20
2022-08-26T23:21:23.872Z,98524.60
2022-08-26T23:24:00.046Z,98524.20
2022-08-26T23:26:37.749Z,98522.40
2022-08-26T23:29:16.619Z,98521.00
2022-08-26T23:31:52.995Z,98515.40
2022-08-26T23:34:46.379Z,98513.00
2022-08-26T23:37:24.779Z,98511.40
2022-08-26T23:40:06.168Z,98508.60
2022-08-26T23:42:42.625Z,98502.00
2022-08-26T23:45:20.062Z,98494.80
2022-08-26T23:47:57.335Z,98488.60
2022-08-26T23:50:49.060Z,98482.40
2022-08-26T23:53:26.942Z,98479.00
2022-08-26T23:56:03.035Z,98477.20
2022-08-26T23:58:39.235Z,98476.40
